createdAt,value
2018-05-13T00:01:57.595Z,24.27
2018-05-13T00:04:30.130Z,23.38
2018-05-13T00:07:02.627Z,24.25
2018-05-13T00:09:35.157Z,22.00
2018-05-13T00:12:07.702Z,23.48
2018-05-13T00:14:40.271Z,22.92
2018-05-13T00:17:12.782Z,23.25
2018-05-13T00:19:45.315Z,21.52
2018-05-13T00:22:17.825Z,27.15
2018-05-13T00:24:50.352Z,24.42
2018-05-13T00:27:22.861Z,22.90
2018-05-13T00:29:55.386Z,23.35
2018-05-13T00:32:27.892Z,23.55
2018-05-13T00:35:00.430Z,24.50
2018-05-13T00:37:32.946Z,22.65
2018-05-13T00:40:05.553Z,22.73
2018-05-13T00:42:38.069Z,24.33
2018-05-13T00:45:10.671Z,25.58
2018-05-13T00:47:43.191Z,22.00
2018-05-13T00:50:15.722Z,24.70
2018-05-13T00:52:48.226Z,22.87
2018-05-13T00:55:20.751Z,23.10
2018-05-13T00:57:53.257Z,22.42
2018-05-13T01:00:25.788Z,23.30
2018-05-13T01:02:58.301Z,23.23
2018-05-13T01:05:30.836Z,24.10
2018-05-13T01:08:03.351Z,23.35
2018-05-13T01:10:35.944Z,22.05
2018-05-13T01:13:08.450Z,21.23
2018-05-13T01:15:40.977Z,23.55
2018-05-13T01:18:13.493Z,22.58
2018-05-13T01:20:46.231Z,20.83
2018-05-13T01:23:18.740Z,22.95
2018-05-13T01:25:51.273Z,22.75
2018-05-13T01:28:23.786Z,23.12
2018-05-13T01:30:56.307Z,22.67
2018-05-13T01:33:28.836Z,24.27
2018-05-13T01:36:01.359Z,22.10
2018-05-13T01:38:33.887Z,22.75
2018-05-13T01:41:06.411Z,23.10
2018-05-13T01:43:38.944Z,20.60
2018-05-13T01:46:11.463Z,24.10
2018-05-13T01:48:43.995Z,19.70
2018-05-13T01:51:16.521Z,21.70
2018-05-13T01:53:49.049Z,20.27
2018-05-13T01:56:21.554Z,22.33
2018-05-13T01:58:54.082Z,20.75
2018-05-13T02:01:26.595Z,20.40
2018-05-13T02:03:59.117Z,21.60
2018-05-13T02:06:31.622Z,21.17
2018-05-13T02:09:04.148Z,22.25
2018-05-13T02:11:36.676Z,21.62
2018-05-13T02:14:09.213Z,19.55
2018-05-13T02:16:41.739Z,20.92
2018-05-13T02:19:14.265Z,18.12
2018-05-13T02:21:46.809Z,19.08
2018-05-13T02:24:19.361Z,18.75
2018-05-13T02:26:51.864Z,19.52
2018-05-13T02:29:24.389Z,21.25
2018-05-13T02:31:56.919Z,19.90
2018-05-13T02:34:29.450Z,20.85
2018-05-13T02:37:01.955Z,19.08
2018-05-13T02:39:34.487Z,19.73
2018-05-13T02:42:07.015Z,20.83
2018-05-13T02:44:39.539Z,21.45
2018-05-13T02:47:12.064Z,18.83
2018-05-13T02:49:44.608Z,19.20
2018-05-13T02:52:17.105Z,19.75
2018-05-13T02:54:49.648Z,19.87
2018-05-13T02:57:22.166Z,19.52
2018-05-13T02:59:54.714Z,19.08
2018-05-13T03:02:27.287Z,18.02
2018-05-13T03:04:59.815Z,18.40
2018-05-13T03:07:32.334Z,20.45
2018-05-13T03:10:04.910Z,19.85
2018-05-13T03:12:37.437Z,20.80
2018-05-13T03:15:10.030Z,20.02
2018-05-13T03:17:42.560Z,17.87
2018-05-13T03:20:15.089Z,19.85
2018-05-13T03:22:47.601Z,19.55
2018-05-13T03:25:20.121Z,21.20
2018-05-13T03:27:52.625Z,19.55
2018-05-13T03:30:25.156Z,19.35
2018-05-13T03:32:57.708Z,23.02
2018-05-13T03:35:30.237Z,19.27
2018-05-13T03:38:02.738Z,21.58
2018-05-13T03:40:35.284Z,22.62
2018-05-13T03:43:07.789Z,20.02
2018-05-13T03:45:40.328Z,20.33
2018-05-13T03:48:12.841Z,19.20
2018-05-13T03:50:45.397Z,21.92
2018-05-13T03:53:17.895Z,20.65
2018-05-13T03:55:50.436Z,19.40
2018-05-13T03:58:22.960Z,18.48
2018-05-13T04:00:55.486Z,21.45
2018-05-13T04:03:27.998Z,19.45
2018-05-13T04:06:00.533Z,22.17
2018-05-13T04:08:53.693Z,19.48
2018-05-13T04:11:38.032Z,20.33
2018-05-13T04:14:22.400Z,21.33
2018-05-13T04:16:54.935Z,21.95
2018-05-13T04:19:27.464Z,20.05
2018-05-13T04:21:59.985Z,21.95
2018-05-13T04:24:32.503Z,20.08
2018-05-13T04:27:05.086Z,21.92
2018-05-13T04:29:37.887Z,20.35
2018-05-13T04:32:10.432Z,22.83
2018-05-13T04:34:42.973Z,20.95
2018-05-13T04:37:15.856Z,21.62
2018-05-13T04:39:48.402Z,22.30
2018-05-13T04:42:20.935Z,21.17
2018-05-13T04:44:53.466Z,19.77
2018-05-13T04:47:26.017Z,20.73
2018-05-13T04:49:58.525Z,20.35
2018-05-13T04:52:31.049Z,20.55
2018-05-13T04:55:03.562Z,20.58
2018-05-13T04:57:36.602Z,20.08
2018-05-13T05:00:09.187Z,19.05
2018-05-13T05:02:41.708Z,20.50
2018-05-13T05:05:14.228Z,19.40
2018-05-13T05:07:46.747Z,18.92
2018-05-13T05:10:19.285Z,19.35
2018-05-13T05:12:51.797Z,18.33
2018-05-13T05:15:24.332Z,19.67
2018-05-13T05:17:56.847Z,18.85
2018-05-13T05:20:29.376Z,19.83
2018-05-13T05:23:01.882Z,19.20
2018-05-13T05:25:34.485Z,17.90
2018-05-13T05:28:06.985Z,18.48
2018-05-13T05:30:39.540Z,16.40
2018-05-13T05:33:12.058Z,17.25
2018-05-13T05:35:44.696Z,17.52
2018-05-13T05:38:17.156Z,17.90
2018-05-13T05:40:49.686Z,18.35
2018-05-13T05:43:22.189Z,17.40
2018-05-13T05:45:54.726Z,17.00
2018-05-13T05:48:27.259Z,18.00
2018-05-13T05:50:59.785Z,17.25
2018-05-13T05:53:32.297Z,16.87
2018-05-13T05:56:04.836Z,18.37
2018-05-13T05:58:37.340Z,16.58
2018-05-13T06:01:10.238Z,17.12
2018-05-13T06:03:42.829Z,17.83
2018-05-13T06:06:15.368Z,18.45
2018-05-13T06:08:47.986Z,18.62
2018-05-13T06:11:20.510Z,18.17
2018-05-13T06:13:53.020Z,17.83
2018-05-13T06:16:25.555Z,16.30
2018-05-13T06:18:58.057Z,19.30
2018-05-13T06:21:30.581Z,17.30
2018-05-13T06:24:03.084Z,17.25
2018-05-13T06:26:35.674Z,16.92
2018-05-13T06:29:08.231Z,18.10
2018-05-13T06:31:40.769Z,17.45
2018-05-13T06:34:13.291Z,18.37
2018-05-13T06:36:46.285Z,17.20
2018-05-13T06:39:18.808Z,18.50
2018-05-13T06:41:51.331Z,17.65
2018-05-13T06:44:23.841Z,15.77
2018-05-13T06:46:56.366Z,16.73
2018-05-13T06:49:28.882Z,16.27
2018-05-13T06:52:01.409Z,18.05
2018-05-13T06:54:33.958Z,19.17
2018-05-13T06:57:06.500Z,15.77
2018-05-13T06:59:39.149Z,17.58
2018-05-13T07:02:11.787Z,16.98
2018-05-13T07:04:44.386Z,16.60
2018-05-13T07:07:16.922Z,17.33
2018-05-13T07:09:49.432Z,17.80
2018-05-13T07:12:21.971Z,17.83
2018-05-13T07:14:54.477Z,17.58
2018-05-13T07:17:27.018Z,17.37
2018-05-13T07:19:59.522Z,17.67
2018-05-13T07:22:32.040Z,17.00
2018-05-13T07:25:04.554Z,17.42
2018-05-13T07:27:37.335Z,16.92
2018-05-13T07:30:09.839Z,16.12
2018-05-13T07:32:42.411Z,17.33
2018-05-13T07:35:14.928Z,15.23
2018-05-13T07:37:47.658Z,17.10
2018-05-13T07:40:20.179Z,15.88
2018-05-13T07:45:31.368Z,14.60
2018-05-13T07:48:03.906Z,15.35
2018-05-13T07:50:36.837Z,15.20
2018-05-13T07:53:09.373Z,14.05
2018-05-13T07:55:41.899Z,15.95
2018-05-13T07:58:14.455Z,15.05
2018-05-13T08:00:46.985Z,15.32
2018-05-13T08:03:19.521Z,14.15
2018-05-13T08:05:52.031Z,14.27
2018-05-13T08:08:24.561Z,14.87
2018-05-13T08:10:57.088Z,16.37
2018-05-13T08:13:29.615Z,16.23
2018-05-13T08:16:02.131Z,15.75
2018-05-13T08:18:34.878Z,17.30
2018-05-13T08:21:07.585Z,17.02
2018-05-13T08:23:40.123Z,15.68
2018-05-13T08:26:13.492Z,17.08
2018-05-13T08:28:46.005Z,17.65
2018-05-13T08:31:18.530Z,16.27
2018-05-13T08:33:51.104Z,16.48
2018-05-13T08:36:23.649Z,16.85
2018-05-13T08:38:56.161Z,14.57
2018-05-13T08:41:28.711Z,16.02
2018-05-13T08:44:01.245Z,15.57
2018-05-13T08:46:33.780Z,15.35
2018-05-13T08:49:08.422Z,15.52
2018-05-13T08:51:40.996Z,16.45
2018-05-13T08:54:13.548Z,16.87
2018-05-13T08:56:46.110Z,15.50
2018-05-13T08:59:18.619Z,17.20
2018-05-13T09:01:51.149Z,16.20
2018-05-13T09:04:23.675Z,18.52
2018-05-13T09:06:56.208Z,15.27
2018-05-13T09:09:28.720Z,16.83
2018-05-13T09:12:01.265Z,15.75
2018-05-13T09:14:33.785Z,16.40
2018-05-13T09:17:06.327Z,16.40
2018-05-13T09:19:39.076Z,18.75
2018-05-13T09:22:11.633Z,15.48
2018-05-13T09:24:44.141Z,15.45
2018-05-13T09:27:16.806Z,15.35
2018-05-13T09:29:49.517Z,17.23
2018-05-13T09:32:22.045Z,15.15
2018-05-13T09:34:54.545Z,17.42
2018-05-13T09:37:27.071Z,15.38
2018-05-13T09:39:59.579Z,14.70
2018-05-13T09:42:32.109Z,16.12
2018-05-13T09:45:04.617Z,13.10
2018-05-13T09:47:37.796Z,14.45
2018-05-13T09:50:10.457Z,12.20
2018-05-13T09:52:43.010Z,10.90
2018-05-13T09:55:15.681Z,12.85
2018-05-13T09:57:48.211Z,12.10
2018-05-13T10:00:20.740Z,11.65
2018-05-13T10:02:53.285Z,11.12
2018-05-13T10:05:25.795Z,13.13
2018-05-13T10:07:58.319Z,11.45
2018-05-13T10:10:30.811Z,9.93
2018-05-13T10:13:03.328Z,9.25
2018-05-13T10:15:35.871Z,10.90
2018-05-13T10:18:08.546Z,12.75
2018-05-13T10:20:41.049Z,9.55
2018-05-13T10:23:13.576Z,9.85
2018-05-13T10:25:46.076Z,9.55
2018-05-13T10:28:18.602Z,10.13
2018-05-13T10:30:51.108Z,8.80
2018-05-13T10:33:23.645Z,8.95
2018-05-13T10:35:56.152Z,8.77
2018-05-13T10:38:28.977Z,9.30
2018-05-13T10:41:01.658Z,8.70
2018-05-13T10:43:34.236Z,10.05
2018-05-13T10:46:06.812Z,8.90
2018-05-13T10:48:39.334Z,7.72
2018-05-13T10:51:11.827Z,7.15
2018-05-13T10:53:45.215Z,6.62
2018-05-13T10:56:17.723Z,8.00
2018-05-13T10:58:50.253Z,7.43
2018-05-13T11:01:22.758Z,8.35
2018-05-13T11:03:55.284Z,7.87
2018-05-13T11:06:27.807Z,8.95
2018-05-13T11:09:00.334Z,9.18
2018-05-13T11:11:32.840Z,8.13
2018-05-13T11:14:05.504Z,6.82
2018-05-13T11:16:38.006Z,7.80
2018-05-13T11:19:10.640Z,8.07
2018-05-13T11:21:43.171Z,8.48
2018-05-13T11:24:15.760Z,7.30
2018-05-13T11:26:48.283Z,7.57
2018-05-13T11:29:20.826Z,9.55
2018-05-13T11:31:53.339Z,7.95
2018-05-13T11:34:25.923Z,8.52
2018-05-13T11:36:58.440Z,8.10
2018-05-13T11:39:30.966Z,7.85
2018-05-13T11:42:03.460Z,8.10
2018-05-13T11:44:36.289Z,8.60
2018-05-13T11:47:08.813Z,9.27
2018-05-13T11:49:41.381Z,7.90
2018-05-13T11:52:14.048Z,8.85
2018-05-13T11:54:46.571Z,9.35
2018-05-13T11:57:19.085Z,7.95
2018-05-13T11:59:51.597Z,7.90
2018-05-13T12:02:24.183Z,11.45
2018-05-13T12:04:56.644Z,8.20
2018-05-13T12:07:29.169Z,7.68
2018-05-13T12:10:01.670Z,7.87
2018-05-13T12:12:34.200Z,8.50
2018-05-13T12:15:06.815Z,8.50
2018-05-13T12:17:39.386Z,9.40
2018-05-13T12:20:12.437Z,8.43
2018-05-13T12:22:45.173Z,8.15
2018-05-13T12:25:17.673Z,11.70
2018-05-13T12:27:50.219Z,9.65
2018-05-13T12:30:22.727Z,8.18
2018-05-13T12:32:55.251Z,8.50
2018-05-13T12:35:27.752Z,8.63
2018-05-13T12:38:00.335Z,7.68
2018-05-13T12:40:32.816Z,7.95
2018-05-13T12:43:05.429Z,8.68
2018-05-13T12:45:37.965Z,8.38
2018-05-13T12:48:10.516Z,8.25
2018-05-13T12:50:43.070Z,9.20
2018-05-13T12:53:15.583Z,8.80
2018-05-13T12:55:48.090Z,8.70
2018-05-13T12:58:20.619Z,8.30
2018-05-13T13:00:53.126Z,8.77
2018-05-13T13:03:25.656Z,8.27
2018-05-13T13:05:58.160Z,8.35
2018-05-13T13:08:30.686Z,7.90
2018-05-13T13:11:03.179Z,7.65
2018-05-13T13:13:35.707Z,10.32
2018-05-13T13:16:08.208Z,6.87
2018-05-13T13:18:40.735Z,11.23
2018-05-13T13:21:13.241Z,9.80
2018-05-13T13:23:45.777Z,7.90
2018-05-13T13:26:18.280Z,15.27
2018-05-13T13:28:50.817Z,7.97
2018-05-13T13:31:23.319Z,10.02
2018-05-13T13:33:55.836Z,7.35
2018-05-13T13:36:28.336Z,7.68
2018-05-13T13:39:00.851Z,7.90
2018-05-13T13:41:33.351Z,7.72
2018-05-13T13:44:06.445Z,7.00
2018-05-13T13:46:39.089Z,7.40
2018-05-13T13:49:11.611Z,11.25
2018-05-13T13:51:44.119Z,7.22
2018-05-13T13:54:16.841Z,7.07
2018-05-13T13:56:49.348Z,6.70
2018-05-13T13:59:21.932Z,6.57
2018-05-13T14:01:54.408Z,6.45
2018-05-13T14:04:26.946Z,8.40
2018-05-13T14:06:59.445Z,9.38
2018-05-13T14:09:31.968Z,7.12
2018-05-13T14:12:04.593Z,6.70
2018-05-13T14:14:37.094Z,7.43
2018-05-13T14:17:09.972Z,7.55
2018-05-13T14:19:42.817Z,10.90
2018-05-13T14:22:15.331Z,8.13
2018-05-13T14:24:47.869Z,10.02
2018-05-13T14:27:20.381Z,6.85
2018-05-13T14:29:52.902Z,6.82
2018-05-13T14:32:25.428Z,9.25
2018-05-13T14:34:58.095Z,7.72
2018-05-13T14:37:30.596Z,6.60
2018-05-13T14:40:03.121Z,6.93
2018-05-13T14:42:35.924Z,7.90
2018-05-13T14:45:08.945Z,7.37
2018-05-13T14:47:41.506Z,8.63
2018-05-13T14:50:14.145Z,8.27
2018-05-13T14:52:46.639Z,7.50
2018-05-13T14:55:19.168Z,7.57
2018-05-13T14:57:51.668Z,7.12
2018-05-13T15:00:24.187Z,7.10
2018-05-13T15:02:56.760Z,9.60
2018-05-13T15:05:29.259Z,13.13
2018-05-13T15:08:01.779Z,7.32
2018-05-13T15:10:35.386Z,10.32
2018-05-13T15:13:07.885Z,6.53
2018-05-13T15:15:40.649Z,6.85
2018-05-13T15:18:13.150Z,5.57
2018-05-13T15:20:45.662Z,5.60
2018-05-13T15:23:18.169Z,8.65
2018-05-13T15:25:50.700Z,6.95
2018-05-13T15:28:23.240Z,10.15
2018-05-13T15:30:55.744Z,6.07
2018-05-13T15:33:28.271Z,5.28
2018-05-13T15:36:00.783Z,5.20
2018-05-13T15:38:33.305Z,6.35
2018-05-13T15:41:06.000Z,5.97
2018-05-13T15:43:38.545Z,6.12
2018-05-13T15:46:11.457Z,5.47
2018-05-13T15:48:43.979Z,5.47
2018-05-13T15:51:16.541Z,7.73
2018-05-13T15:53:49.100Z,5.72
2018-05-13T15:56:21.600Z,9.68
2018-05-13T15:58:54.126Z,6.10
2018-05-13T16:01:26.642Z,6.22
2018-05-13T16:03:59.173Z,6.75
2018-05-13T16:06:31.743Z,7.82
2018-05-13T16:09:04.852Z,6.87
2018-05-13T16:11:37.518Z,7.47
2018-05-13T16:14:10.046Z,4.35
2018-05-13T16:16:42.689Z,8.20
2018-05-13T16:19:15.220Z,3.58
2018-05-13T16:21:48.029Z,7.22
2018-05-13T16:24:20.546Z,5.87
2018-05-13T16:26:53.059Z,3.60
2018-05-13T16:29:25.629Z,3.90
2018-05-13T16:31:58.117Z,3.22
2018-05-13T16:34:30.634Z,6.00
2018-05-13T16:37:03.151Z,9.63
2018-05-13T16:39:35.683Z,3.37
2018-05-13T16:42:08.382Z,3.47
2018-05-13T16:44:40.924Z,3.00
2018-05-13T16:47:13.429Z,3.05
2018-05-13T16:49:46.117Z,7.15
2018-05-13T16:52:19.463Z,3.67
2018-05-13T16:54:52.000Z,4.60
2018-05-13T16:57:24.513Z,4.15
2018-05-13T16:59:57.041Z,5.43
2018-05-13T17:02:29.641Z,6.03
2018-05-13T17:05:02.084Z,4.93
2018-05-13T17:07:35.680Z,3.17
2018-05-13T17:10:08.209Z,7.18
2018-05-13T17:12:40.728Z,2.95
2018-05-13T17:15:13.245Z,4.75
2018-05-13T17:17:45.745Z,5.03
2018-05-13T17:20:18.264Z,8.10
2018-05-13T17:22:50.765Z,3.85
2018-05-13T17:25:23.278Z,4.90
2018-05-13T17:27:55.889Z,7.75
2018-05-13T17:30:28.418Z,4.75
2018-05-13T17:33:00.917Z,3.10
2018-05-13T17:35:33.505Z,5.35
2018-05-13T17:38:05.967Z,4.45
2018-05-13T17:40:38.488Z,4.87
2018-05-13T17:43:11.437Z,6.03
2018-05-13T17:45:43.989Z,4.62
2018-05-13T17:48:16.489Z,3.20
2018-05-13T17:50:49.007Z,4.20
2018-05-13T17:53:21.505Z,3.40
2018-05-13T17:55:54.017Z,5.60
2018-05-13T17:58:26.522Z,4.68
2018-05-13T18:00:59.088Z,4.18
2018-05-13T18:03:31.584Z,6.80
2018-05-13T18:06:04.099Z,7.22
2018-05-13T18:08:36.609Z,3.22
2018-05-13T18:11:09.148Z,3.20
2018-05-13T18:13:41.671Z,6.30
2018-05-13T18:16:14.206Z,3.30
2018-05-13T18:18:46.729Z,5.90
2018-05-13T18:21:19.261Z,3.95
2018-05-13T18:23:51.760Z,6.60
2018-05-13T18:26:24.280Z,4.53
2018-05-13T18:28:56.781Z,4.93
2018-05-13T18:31:29.305Z,5.37
2018-05-13T18:34:01.804Z,2.87
2018-05-13T18:36:34.359Z,3.10
2018-05-13T18:39:07.033Z,2.90
2018-05-13T18:41:39.449Z,3.17
2018-05-13T18:44:11.953Z,7.22
2018-05-13T18:46:44.472Z,3.03
2018-05-13T18:49:16.981Z,3.67
2018-05-13T18:51:49.504Z,7.60
2018-05-13T18:54:21.997Z,4.43
2018-05-13T18:56:54.536Z,4.45
2018-05-13T18:59:27.033Z,3.90
2018-05-13T19:01:59.553Z,7.82
2018-05-13T19:04:32.061Z,3.08
2018-05-13T19:07:04.612Z,4.03
2018-05-13T19:09:37.387Z,3.97
2018-05-13T19:12:10.135Z,8.88
2018-05-13T19:14:42.701Z,6.50
2018-05-13T19:17:15.314Z,3.58
2018-05-13T19:19:47.854Z,4.20
2018-05-13T19:22:20.364Z,5.62
2018-05-13T19:24:52.965Z,5.45
2018-05-13T19:27:25.404Z,4.18
2018-05-13T19:29:57.921Z,5.90
2018-05-13T19:32:30.422Z,4.70
2018-05-13T19:35:03.297Z,3.33
2018-05-13T19:37:35.796Z,3.17
2018-05-13T19:40:08.331Z,3.30
2018-05-13T19:42:40.829Z,2.97
2018-05-13T19:45:13.473Z,4.60
2018-05-13T19:47:45.970Z,4.82
2018-05-13T19:50:18.487Z,3.08
2018-05-13T19:52:50.982Z,3.12
2018-05-13T19:55:23.501Z,3.83
2018-05-13T19:57:55.985Z,3.53
2018-05-13T20:00:28.499Z,4.32
2018-05-13T20:03:01.068Z,2.70
2018-05-13T20:05:33.589Z,4.18
2018-05-13T20:08:07.080Z,2.83
2018-05-13T20:10:39.607Z,2.92
2018-05-13T20:13:12.106Z,3.67
2018-05-13T20:15:44.623Z,3.87
2018-05-13T20:18:17.144Z,4.15
2018-05-13T20:20:49.653Z,4.45
2018-05-13T20:23:25.924Z,2.87
2018-05-13T20:25:58.433Z,2.83
2018-05-13T20:28:30.937Z,3.95
2018-05-13T20:31:03.664Z,5.57
2018-05-13T20:33:36.223Z,3.00
2018-05-13T20:36:09.773Z,5.53
2018-05-13T20:38:42.315Z,3.12
2018-05-13T20:41:14.850Z,2.97
2018-05-13T20:43:47.355Z,5.30
2018-05-13T20:46:19.871Z,4.93
2018-05-13T20:48:52.375Z,4.85
2018-05-13T20:51:24.897Z,3.87
2018-05-13T20:53:57.425Z,4.55
2018-05-13T20:56:29.994Z,4.65
2018-05-13T20:59:02.479Z,3.70
2018-05-13T21:01:35.025Z,7.32
2018-05-13T21:04:07.555Z,6.30
2018-05-13T21:06:40.111Z,4.72
2018-05-13T21:09:12.651Z,2.70
2018-05-13T21:11:45.286Z,6.70
2018-05-13T21:14:17.782Z,5.85
2018-05-13T21:16:50.378Z,3.83
2018-05-13T21:19:23.272Z,2.78
2018-05-13T21:21:55.847Z,6.37
2018-05-13T21:24:28.364Z,8.00
2018-05-13T21:27:01.267Z,3.37
2018-05-13T21:29:33.813Z,9.50
2018-05-13T21:32:07.290Z,6.35
2018-05-13T21:34:40.272Z,4.80
2018-05-13T21:37:12.793Z,8.68
2018-05-13T21:39:45.475Z,4.55
2018-05-13T21:42:18.050Z,7.30
2018-05-13T21:44:50.546Z,3.15
2018-05-13T21:47:23.074Z,4.18
2018-05-13T21:49:55.711Z,6.50
2018-05-13T21:52:28.382Z,6.55
2018-05-13T21:55:00.884Z,6.57
2018-05-13T21:57:33.877Z,3.85
2018-05-13T22:00:06.939Z,3.92
2018-05-13T22:02:39.478Z,5.30
2018-05-13T22:05:12.289Z,3.72
2018-05-13T22:07:44.978Z,4.37
2018-05-13T22:10:17.483Z,4.12
2018-05-13T22:12:49.999Z,3.40
2018-05-13T22:15:22.564Z,3.10
2018-05-13T22:17:55.079Z,3.72
2018-05-13T22:20:27.592Z,3.15
2018-05-13T22:23:00.106Z,4.87
2018-05-13T22:25:32.605Z,4.07
2018-05-13T22:28:06.268Z,4.93
2018-05-13T22:30:39.342Z,3.30
2018-05-13T22:33:11.857Z,4.55
2018-05-13T22:35:45.851Z,4.70
2018-05-13T22:38:18.469Z,5.40
2018-05-13T22:40:51.291Z,3.05
2018-05-13T22:43:23.837Z,3.67
2018-05-13T22:45:56.414Z,3.58
2018-05-13T22:48:28.944Z,3.10
2018-05-13T22:51:01.482Z,3.40
2018-05-13T22:53:33.975Z,6.40
2018-05-13T22:56:06.647Z,6.37
2018-05-13T22:58:39.218Z,4.62
2018-05-13T23:01:11.855Z,6.43
2018-05-13T23:03:44.370Z,3.50
2018-05-13T23:06:16.948Z,3.10
2018-05-13T23:08:49.461Z,3.33
2018-05-13T23:11:23.085Z,5.10
2018-05-13T23:13:55.625Z,3.28
2018-05-13T23:16:28.166Z,6.95
2018-05-13T23:19:00.900Z,3.42
2018-05-13T23:21:33.429Z,4.62
2018-05-13T23:24:05.931Z,5.10
2018-05-13T23:26:38.648Z,5.37
2018-05-13T23:29:11.261Z,3.58
2018-05-13T23:31:43.813Z,3.28
2018-05-13T23:34:16.428Z,5.65
2018-05-13T23:36:48.955Z,5.18
2018-05-13T23:39:21.454Z,3.00
2018-05-13T23:41:53.971Z,4.97
2018-05-13T23:44:26.472Z,4.00
2018-05-13T23:46:58.995Z,4.00
2018-05-13T23:49:31.488Z,3.72
2018-05-13T23:52:04.011Z,4.65
2018-05-13T23:54:36.611Z,3.03
2018-05-13T23:57:09.261Z,3.78
2018-05-13T23:59:41.766Z,3.30
